createdAt,value
2023-04-27T00:02:27.085Z,1012.49
2023-04-27T00:08:46.984Z,1012.47
2023-04-27T00:15:10.009Z,1012.51
2023-04-27T00:21:29.978Z,1012.55
2023-04-27T00:27:53.067Z,1012.53
2023-04-27T00:34:13.005Z,1012.51
2023-04-27T00:40:36.013Z,1012.51
2023-04-27T00:46:56.000Z,1012.53
2023-04-27T00:53:19.060Z,1012.53
2023-04-27T00:59:39.011Z,1012.59
2023-04-27T01:06:02.046Z,1012.61
2023-04-27T01:12:22.017Z,1012.57
2023-04-27T01:18:45.040Z,1012.59
2023-04-27T01:25:05.029Z,1012.55
2023-04-27T01:31:28.022Z,1012.55
2023-04-27T01:37:47.993Z,1012.55
2023-04-27T01:44:10.996Z,1012.59
2023-04-27T01:50:31.008Z,1012.55
2023-04-27T01:56:54.013Z,1012.57
2023-04-27T02:03:14.104Z,1012.67
2023-04-27T02:09:37.001Z,1012.73
2023-04-27T02:15:56.989Z,1012.71
2023-04-27T02:22:19.995Z,1012.69
2023-04-27T02:28:39.993Z,1012.69
2023-04-27T02:35:03.002Z,1012.71
2023-04-27T02:41:23.038Z,1012.69
2023-04-27T02:47:46.037Z,1012.73
2023-04-27T02:54:06.006Z,1012.73
2023-04-27T03:00:29.039Z,1012.65
2023-04-27T03:06:49.043Z,1012.59
2023-04-27T03:13:12.036Z,1012.57
2023-04-27T03:19:31.978Z,1012.53
2023-04-27T03:43:14.046Z,1012.61
2023-04-27T03:49:36.982Z,1012.65
2023-04-27T03:55:56.990Z,1012.59
2023-04-27T04:02:20.392Z,1012.63
2023-04-27T04:08:39.981Z,1012.69
2023-04-27T04:15:02.992Z,1012.73
2023-04-27T04:21:23.112Z,1012.79
2023-04-27T04:27:46.008Z,1012.83
2023-04-27T04:34:05.988Z,1012.9
2023-04-27T04:40:29.011Z,1012.94
2023-04-27T04:46:49.065Z,1012.94
2023-04-27T04:53:12.040Z,1012.98
2023-04-27T04:59:32.157Z,1013.04
2023-04-27T05:05:54.988Z,1013.08
2023-04-27T05:12:15.006Z,1013.21
2023-04-27T05:18:38.194Z,1013.23
2023-04-27T05:24:58.020Z,1013.27
2023-04-27T05:31:21.028Z,1013.27
2023-04-27T05:37:41.014Z,1013.28
2023-04-27T05:44:04.051Z,1013.36
2023-04-27T05:50:24.000Z,1013.48
2023-04-27T05:56:47.040Z,1013.54
2023-04-27T06:03:07.168Z,1013.56
2023-04-27T06:09:29.995Z,1013.6
2023-04-27T06:15:50.130Z,1013.6
2023-04-27T06:22:12.997Z,1013.62
2023-04-27T06:28:32.993Z,1013.68
2023-04-27T06:34:56.022Z,1013.74
2023-04-27T06:41:16.013Z,1013.75
2023-04-27T06:47:39.078Z,1013.74
2023-04-27T06:53:59.026Z,1013.74
2023-04-27T07:00:22.092Z,1013.75
2023-04-27T07:06:42.002Z,1013.75
2023-04-27T07:13:06.776Z,1013.68
2023-04-27T07:19:24.990Z,1013.66
2023-04-27T07:25:47.989Z,1013.62
2023-04-27T07:32:08.234Z,1013.64
2023-04-27T07:38:30.984Z,1013.62
2023-04-27T07:44:50.983Z,1013.62
2023-04-27T07:51:14.022Z,1013.62
2023-04-27T07:57:33.979Z,1013.56
2023-04-27T08:03:57.239Z,1013.56
2023-04-27T08:10:17.014Z,1013.5
2023-04-27T08:16:40.302Z,1013.48
2023-04-27T08:23:00.016Z,1013.44
2023-04-27T08:29:27.596Z,1013.4
2023-04-27T08:53:22.035Z,1013.27
2023-04-27T08:59:42.224Z,1013.25
2023-04-27T09:06:05.960Z,1013.27
2023-04-27T09:12:26.034Z,1013.21
2023-04-27T09:18:48.979Z,1013.08
2023-04-27T09:25:09.003Z,1013.02
2023-04-27T09:31:32.084Z,1012.96
2023-04-27T09:37:51.993Z,1012.96
2023-04-27T09:44:14.983Z,1012.96
2023-04-27T09:50:36.144Z,1012.94
2023-04-27T09:56:57.992Z,1012.85
2023-04-27T10:03:18.299Z,1012.83
2023-04-27T10:09:41.009Z,1012.79
2023-04-27T10:16:01.026Z,1012.69
2023-04-27T10:22:23.981Z,1012.71
2023-04-27T10:28:44.012Z,1012.63
2023-04-27T10:35:07.017Z,1012.63
2023-04-27T10:41:27.015Z,1012.53
2023-04-27T10:47:50.058Z,1012.45
2023-04-27T10:54:09.986Z,1012.38
2023-04-27T11:00:33.024Z,1012.32
2023-04-27T11:06:53.020Z,1012.24
2023-04-27T11:13:16.029Z,1012.24
2023-04-27T11:19:35.993Z,1012.18
2023-04-27T11:25:59.036Z,1012.16
2023-04-27T11:32:19.014Z,1012.12
2023-04-27T11:38:42.034Z,1012.04
2023-04-27T11:45:02.094Z,1012
2023-04-27T11:51:24.998Z,1011.93
2023-04-27T11:57:45.010Z,1011.87
2023-04-27T12:04:08.212Z,1011.79
2023-04-27T12:10:27.981Z,1011.75
2023-04-27T12:16:51.060Z,1011.73
2023-04-27T12:23:11.042Z,1011.67
2023-04-27T12:29:34.007Z,1011.63
2023-04-27T12:35:53.984Z,1011.59
2023-04-27T12:42:17.008Z,1011.57
2023-04-27T12:48:37.013Z,1011.51
2023-04-27T12:54:59.991Z,1011.46
2023-04-27T13:01:20.049Z,1011.51
2023-04-27T13:07:42.994Z,1011.51
2023-04-27T13:14:02.973Z,1011.46
2023-04-27T13:20:26.024Z,1011.44
2023-04-27T13:26:45.987Z,1011.44
2023-04-27T13:33:21.564Z,1011.36
2023-04-27T13:39:29.001Z,1011.34
2023-04-27T13:45:51.994Z,1011.3
2023-04-27T13:52:12.004Z,1011.24
2023-04-27T13:58:35.044Z,1011.22
2023-04-27T14:04:55.078Z,1011.2
2023-04-27T14:11:17.994Z,1011.1
2023-04-27T14:28:48.016Z,1010.99
2023-04-27T14:35:12.114Z,1010.91
2023-04-27T14:41:31.987Z,1010.87
2023-04-27T14:47:55.054Z,1010.73
2023-04-27T14:54:15.000Z,1010.65
2023-04-27T15:00:37.997Z,1010.49
2023-04-27T15:06:58.308Z,1010.39
2023-04-27T15:13:21.000Z,1010.27
2023-04-27T15:19:40.999Z,1010.16
2023-04-27T15:26:04.020Z,1010.1
2023-04-27T15:32:24.000Z,1010.1
2023-04-27T15:38:46.979Z,1010.08
2023-04-27T15:45:08.693Z,1010
2023-04-27T15:51:30.053Z,1009.98
2023-04-27T15:57:49.975Z,1009.94
2023-04-27T16:04:13.167Z,1009.84
2023-04-27T16:10:32.980Z,1009.78
2023-04-27T16:16:56.028Z,1009.71
2023-04-27T16:23:16.102Z,1009.65
2023-04-27T16:29:38.988Z,1009.59
2023-04-27T16:35:58.978Z,1009.55
2023-04-27T16:42:22.025Z,1009.51
2023-04-27T16:48:41.988Z,1009.49
2023-04-27T16:55:04.998Z,1009.45
2023-04-27T17:01:25.024Z,1009.35
2023-04-27T17:07:47.981Z,1009.33
2023-04-27T17:14:07.992Z,1009.28
2023-04-27T17:20:31.012Z,1009.24
2023-04-27T17:26:50.991Z,1009.18
2023-04-27T17:33:13.994Z,1009.16
2023-04-27T17:39:34.027Z,1009.06
2023-04-27T17:45:56.998Z,1009.06
2023-04-27T17:52:16.979Z,1009.06
2023-04-27T17:58:40.025Z,1009.02
2023-04-27T18:04:59.981Z,1009
2023-04-27T18:11:23.008Z,1009.02
2023-04-27T18:17:43.056Z,1008.92
2023-04-27T18:24:06.024Z,1008.84
2023-04-27T18:30:26.005Z,1008.77
2023-04-27T18:36:50.962Z,1008.79
2023-04-27T18:43:08.991Z,1008.77
2023-04-27T18:49:32.048Z,1008.77
2023-04-27T18:55:51.998Z,1008.71
2023-04-27T19:02:14.972Z,1008.69
2023-04-27T19:08:34.988Z,1008.73
2023-04-27T19:14:57.996Z,1008.75
2023-04-27T19:21:18.002Z,1008.73
2023-04-27T19:27:40.995Z,1008.65
2023-04-27T19:40:23.988Z,1008.77
2023-04-27T19:46:44.205Z,1008.77
2023-04-27T19:53:07.041Z,1008.81
2023-04-27T20:09:32.032Z,1008.86
2023-04-27T20:15:55.003Z,1008.83
2023-04-27T20:22:16.534Z,1008.77
2023-04-27T20:28:39.024Z,1008.67
2023-04-27T20:35:00.824Z,1008.59
2023-04-27T20:41:22.008Z,1008.57
2023-04-27T20:47:42.031Z,1008.59
2023-04-27T20:54:05.001Z,1008.57
2023-04-27T21:00:25.220Z,1008.61
2023-04-27T21:06:48.014Z,1008.59
2023-04-27T21:13:07.984Z,1008.57
2023-04-27T21:19:30.989Z,1008.57
2023-04-27T21:25:50.998Z,1008.49
2023-04-27T21:32:14.019Z,1008.37
2023-04-27T21:38:33.986Z,1008.24
2023-04-27T21:44:57.031Z,1008.16
2023-04-27T21:51:16.976Z,1007.98
2023-04-27T21:57:39.980Z,1007.92
2023-04-27T22:20:37.033Z,1007.76
2023-04-27T22:26:56.987Z,1007.74
2023-04-27T22:33:19.990Z,1007.64
2023-04-27T22:39:40.036Z,1007.56
2023-04-27T22:46:02.973Z,1007.52
2023-04-27T22:52:22.986Z,1007.51
2023-04-27T22:58:46.008Z,1007.43
2023-04-27T23:05:06.024Z,1007.43
2023-04-27T23:11:28.978Z,1007.39
2023-04-27T23:17:49.032Z,1007.37
2023-04-27T23:24:11.993Z,1007.31
2023-04-27T23:30:32.008Z,1007.25
2023-04-27T23:36:55.026Z,1007.15
2023-04-27T23:43:14.987Z,1007.08
2023-04-27T23:49:37.985Z,1007.04
2023-04-27T23:55:58.039Z,1006.94
